Terminal Aerodrome Forecast
Issued by NWS Tallahassee, FL

Home | Current Version | Previous Version | Text Only | Print | Product List | Glossary On
Versions: 1 2 3 4 5 6 7 8 9 10 11 12 13
335
FTUS42 KTAE 281120
TAFTLH
TAF
KTLH 281120Z 2812/2912 09004KT P6SM SCT070 SCT200
     FM281500 07006KT P6SM SCT060 SCT150 BKN200
     FM282200 24005KT P6SM VCSH BKN060 OVC150
     FM290200 00000KT P6SM SCT060 BKN150=

USA.gov is the U.S. government's official web portal to all federal, state and local government web resources and services.